Time;durP1;ratioP1;P1;durP2;ratioP2;P2;SDS_P1;SDS_P2;PMS_P1;PMS_P2;Temp;Humidity;BMP_temperature;BMP_pressure;BME280_temperature;BME280_humidity;BME280_pressure;Samples;Min_cycle;Max_cycle;Signal;HPM_P1;HPM_P2
2021/07/09 04:11:33;;;;;;;87.50;70.70;;;;;;;20.55;70.87;98090.22;1806958;79;22969;-71
2021/07/09 04:14:00;;;;;;;11.30;7.97;;;;;;;20.54;70.82;98088.47;1760315;81;21067;-72
2021/07/09 04:16:26;;;;;;;11.28;7.22;;;;;;;20.62;71.32;98098.23;1699011;84;21056;-72
2021/07/09 04:18:53;;;;;;;12.25;7.00;;;;;;;20.70;70.95;98095.01;1729548;83;20992;-72
2021/07/09 04:21:19;;;;;;;12.30;7.50;;;;;;;20.79;71.48;98090.80;1719384;83;21108;-72
2021/07/09 04:23:47;;;;;;;12.47;6.85;;;;;;;20.89;71.60;98091.91;1692601;85;21490;-72
2021/07/09 04:26:14;;;;;;;23.27;6.95;;;;;;;20.99;71.54;98099.33;1720903;83;21422;-72
2021/07/09 04:28:40;;;;;;;9.33;6.67;;;;;;;21.08;71.63;98095.98;1725881;82;22299;-72
2021/07/09 04:31:07;;;;;;;13.85;5.95;;;;;;;21.17;71.28;98098.03;1743532;82;20989;-72
2021/07/09 04:33:33;;;;;;;11.97;6.42;;;;;;;21.26;71.06;98095.14;1743944;82;21306;-72
2021/07/09 04:36:00;;;;;;;7.33;6.35;;;;;;;21.34;71.18;98098.66;1714188;82;21003;-72
2021/07/09 04:38:27;;;;;;;9.48;6.22;;;;;;;21.45;71.17;98089.77;1743865;82;21429;-72
2021/07/09 04:40:54;;;;;;;12.03;6.70;;;;;;;21.53;70.75;98092.78;1729581;83;21424;-72
2021/07/09 04:43:20;;;;;;;8.00;6.20;;;;;;;21.60;70.35;98087.80;1747430;81;21006;-72
2021/07/09 04:45:47;;;;;;;10.30;6.50;;;;;;;21.67;70.13;98099.00;1728594;83;20957;-73
2021/07/09 04:48:13;;;;;;;9.50;6.62;;;;;;;21.73;69.86;98091.35;1729646;83;21028;-73
2021/07/09 04:50:39;;;;;;;8.40;5.92;;;;;;;;;;1759446;81;21040;-73
2021/07/09 04:53:06;;;;;;;12.47;6.78;;;;;;;21.82;69.43;98094.31;1759655;81;20949;-73
2021/07/09 04:55:32;;;;;;;10.18;6.70;;;;;;;21.87;69.17;98088.96;1729656;83;21025;-73
2021/07/09 04:57:59;;;;;;;11.18;6.95;;;;;;;21.92;68.98;98087.76;1729552;83;20993;-73
2021/07/09 05:00:26;;;;;;;9.40;6.35;;;;;;;21.97;68.77;98097.72;1729499;83;21020;-73
2021/07/09 05:02:57;;;;;;;11.90;7.45;;;;;;;21.99;68.60;98086.31;1717910;83;21039;-73
2021/07/09 05:05:24;;;;;;;10.80;7.28;;;;;;;22.00;68.53;98087.55;1698970;84;21055;-73
2021/07/09 05:07:51;;;;;;;8.08;6.62;;;;;;;22.05;68.41;98080.95;1729521;83;20996;-73
2021/07/09 05:10:17;;;;;;;10.40;6.97;;;;;;;22.09;68.33;98083.79;1728506;83;21453;-73
2021/07/09 05:12:45;;;;;;;11.00;6.95;;;;;;;22.13;68.33;98083.42;1721598;83;20999;-73
2021/07/09 05:15:13;;;;;;;11.00;7.03;;;;;;;22.17;68.45;98089.95;1738363;82;21047;-72
2021/07/09 05:17:40;;;;;;;9.73;7.08;;;;;;;22.20;68.11;98089.22;1738330;82;21051;-73
2021/07/09 05:20:09;;;;;;;16.82;6.70;;;;;;;22.23;68.15;98084.95;1728395;82;21059;-73
2021/07/09 05:22:35;;;;;;;12.78;7.53;;;;;;;22.26;68.33;98089.25;1708542;84;21095;-73
2021/07/09 05:25:02;;;;;;;9.43;6.80;;;;;;;22.26;68.05;98090.09;1705784;84;21039;-73
2021/07/09 05:27:29;;;;;;;7.75;6.70;;;;;;;22.30;68.13;98096.14;1736990;83;20996;-73
2021/07/09 05:29:55;;;;;;;14.23;7.83;;;;;;;22.31;68.13;98091.11;1710407;83;21065;-73
2021/07/09 05:32:25;;;;;;;10.50;6.87;;;;;;;22.34;68.24;98092.71;1726641;83;21413;-73
2021/07/09 05:34:54;;;;;;;8.55;7.15;;;;;;;22.36;68.23;98092.97;1713378;82;20970;-73
2021/07/09 05:37:23;;;;;;;13.65;7.90;;;;;;;22.39;68.21;98090.52;1725476;82;20989;-73
2021/07/09 05:39:51;;;;;;;11.35;7.83;;;;;;;22.47;67.99;98089.92;1708312;84;21092;-73
2021/07/09 05:42:17;;;;;;;13.53;8.25;;;;;;;22.52;67.84;98083.20;1709876;84;20973;-73
2021/07/09 05:44:44;;;;;;;9.58;7.40;;;;;;;22.58;67.68;98095.37;1719245;82;21029;-73
2021/07/09 05:47:12;;;;;;;10.23;7.35;;;;;;;22.62;67.48;98091.97;1713853;82;21000;-72
2021/07/09 05:49:39;;;;;;;9.03;6.58;;;;;;;22.65;67.55;98084.48;1709691;84;21057;-73
2021/07/09 05:52:07;;;;;;;10.98;6.62;;;;;;;22.72;67.39;98087.56;1713018;83;21028;-73
2021/07/09 05:54:33;;;;;;;9.00;6.58;;;;;;;22.81;67.49;98088.67;1710178;83;21029;-73
2021/07/09 05:57:00;;;;;;;10.35;7.33;;;;;;;22.88;67.46;98082.30;1730894;83;20956;-75
2021/07/09 05:59:27;;;;;;;13.60;7.53;;;;;;;22.97;67.18;98088.80;1725455;83;21016;-73
2021/07/09 06:01:53;;;;;;;8.90;6.62;;;;;;;23.02;67.17;98087.94;1735725;82;22089;-74
2021/07/09 06:04:20;;;;;;;12.10;6.83;;;;;;;23.07;67.04;98083.03;1726612;83;21012;-74
2021/07/09 06:06:47;;;;;;;10.13;6.87;;;;;;;23.12;66.95;98084.87;1737860;82;20985;-74
2021/07/09 06:09:13;;;;;;;8.75;6.35;;;;;;;23.20;66.89;98074.78;1725377;83;21000;-72
2021/07/09 06:11:40;;;;;;;7.28;5.90;;;;;;;23.27;66.77;98080.08;1731309;82;21053;-73
2021/07/09 06:14:06;;;;;;;10.63;6.70;;;;;;;23.36;66.68;98070.39;1687475;84;21073;-75
2021/07/09 06:16:33;;;;;;;13.62;6.37;;;;;;;23.44;66.49;98069.28;1755505;80;21018;-73
2021/07/09 06:18:59;;;;;;;8.18;5.87;;;;;;;23.53;66.49;98074.41;1757082;81;20968;-71
2021/07/09 06:21:26;;;;;;;8.78;6.55;;;;;;;23.59;66.12;98072.55;1748712;81;21028;-73
2021/07/09 06:23:54;;;;;;;9.10;6.17;;;;;;;23.64;65.82;98072.67;1752632;81;21016;-73
2021/07/09 06:26:22;;;;;;;12.30;6.78;;;;;;;23.68;65.64;98077.72;1748590;82;20996;-73
2021/07/09 06:28:49;;;;;;;9.48;6.00;;;;;;;23.74;65.34;98074.97;1748490;82;20992;-73
2021/07/09 06:31:16;;;;;;;7.33;5.80;;;;;;;23.84;65.29;98083.20;1752149;81;21020;-73
2021/07/09 06:33:44;;;;;;;12.40;10.15;;;;;;;23.93;64.99;98074.80;1752628;81;20961;-74
2021/07/09 06:36:10;;;;;;;10.88;7.70;;;;;;;23.98;64.89;98067.15;1748428;81;20989;-74
2021/07/09 06:38:37;;;;;;;7.03;6.33;;;;;;;24.04;64.81;98066.63;1748578;82;20974;-73
2021/07/09 06:41:04;;;;;;;7.85;5.80;;;;;;;24.09;64.14;98063.58;1751666;81;21494;-73
2021/07/09 06:43:30;;;;;;;6.30;5.70;;;;;;;24.13;64.23;98067.75;1698085;84;21029;-73
2021/07/09 06:45:57;;;;;;;8.18;5.90;;;;;;;24.20;64.04;98068.09;1764152;81;20985;-73
2021/07/09 06:48:23;;;;;;;8.28;5.60;;;;;;;24.24;63.83;98064.98;1752072;81;21041;-72
2021/07/09 06:50:50;;;;;;;7.53;6.55;;;;;;;24.27;63.60;98051.67;1748532;81;21009;-73
2021/07/09 06:53:21;;;;;;;8.28;6.80;;;;;;;24.32;63.61;98053.48;1748417;82;21064;-73
2021/07/09 06:55:48;;;;;;;7.33;6.47;;;;;;;24.41;63.43;98046.41;1752326;81;22077;-73
2021/07/09 06:58:14;;;;;;;7.20;6.55;;;;;;;24.50;63.30;98051.55;1756826;81;21004;-73
2021/07/09 07:00:40;;;;;;;8.63;6.72;;;;;;;24.59;62.97;98053.95;1752963;81;21036;-73
2021/07/09 07:03:07;;;;;;;6.47;5.78;;;;;;;24.66;63.02;98037.50;1752837;81;21442;-72
2021/07/09 07:05:34;;;;;;;7.20;6.50;;;;;;;24.72;62.43;98038.34;1748582;81;20989;-73
2021/07/09 07:08:21;;;;;;;7.78;6.40;;;;;;;24.74;62.32;98032.80;1752767;81;21016;-72
2021/07/09 07:10:49;;;;;;;9.15;6.37;;;;;;;24.81;62.53;98034.44;1757666;81;21001;-72
2021/07/09 07:13:15;;;;;;;7.22;6.53;;;;;;;24.90;62.44;98036.38;1754401;81;21013;-73
2021/07/09 07:15:42;;;;;;;13.20;10.45;;;;;;;24.97;62.36;98027.20;1708997;83;21001;-72
2021/07/09 07:18:09;;;;;;;7.65;6.20;;;;;;;25.03;62.39;98028.00;1749568;81;22154;-73
2021/07/09 07:20:41;;;;;;;11.18;7.20;;;;;;;25.08;62.35;98023.02;1749379;81;20997;-74
2021/07/09 07:23:06;;;;;;;9.83;6.80;;;;;;;25.14;61.96;98018.42;1752920;81;21044;-73
2021/07/09 07:25:33;;;;;;;7.22;6.00;;;;;;;25.14;62.02;98014.36;1748581;81;20957;-73
2021/07/09 07:28:00;;;;;;;10.75;7.55;;;;;;;25.16;62.10;98008.80;1746908;81;20941;-73
2021/07/09 07:30:28;;;;;;;9.63;7.55;;;;;;;25.22;62.03;97991.97;1693166;85;21072;-74
2021/07/09 07:32:55;;;;;;;8.75;7.85;;;;;;;25.32;61.43;97991.98;1698112;84;21170;-74
2021/07/09 07:35:22;;;;;;;8.50;6.62;;;;;;;25.32;61.43;97991.98;1755748;81;20949;-74
2021/07/09 07:37:49;;;;;;;11.97;7.20;;;;;;;25.38;61.54;97983.30;1752694;81;21474;-74
2021/07/09 07:40:17;;;;;;;9.75;6.90;;;;;;;25.43;61.89;97977.44;1753096;81;21114;-73
2021/07/09 07:42:44;;;;;;;7.67;6.92;;;;;;;25.49;61.40;97976.87;1748327;81;21028;-73
2021/07/09 07:45:11;;;;;;;15.48;7.35;;;;;;;25.56;61.19;97982.14;1749142;81;21086;-73
2021/07/09 07:47:39;;;;;;;7.72;6.55;;;;;;;25.63;60.89;97981.56;1753880;81;21545;-74
2021/07/09 07:50:07;;;;;;;8.08;7.22;;;;;;;25.74;60.44;97981.94;1746378;81;21446;-74
2021/07/09 07:52:33;;;;;;;10.03;6.62;;;;;;;25.74;60.44;97981.94;1746642;81;20997;-75
2021/07/09 07:55:00;;;;;;;18.62;8.63;;;;;;;25.78;60.38;97982.84;1746196;81;20962;-74
2021/07/09 07:57:26;;;;;;;10.38;7.00;;;;;;;25.81;60.08;97984.42;1754386;81;21012;-75
2021/07/09 07:59:53;;;;;;;10.65;6.78;;;;;;;25.84;59.74;97979.55;1752613;81;20978;-75
2021/07/09 08:02:20;;;;;;;7.62;6.80;;;;;;;25.88;59.50;97980.63;1748967;81;20983;-74
2021/07/09 08:04:47;;;;;;;9.05;6.50;;;;;;;25.90;59.91;97974.06;1741866;82;21070;-74
2021/07/09 08:07:15;;;;;;;16.97;7.87;;;;;;;25.92;59.80;97970.72;1759313;81;20984;-74
2021/07/09 08:09:42;;;;;;;10.13;6.85;;;;;;;25.94;59.72;97966.48;1761876;81;20997;-74
2021/07/09 08:12:09;;;;;;;13.50;7.40;;;;;;;26.06;59.87;97973.97;1758596;81;20988;-75
2021/07/09 08:14:36;;;;;;;13.25;7.75;;;;;;;26.06;59.65;97960.39;1707568;84;21040;-74
2021/07/09 08:17:07;;;;;;;8.53;7.28;;;;;;;26.17;59.51;97964.81;1707652;84;20990;-74
2021/07/09 08:19:34;;;;;;;8.68;7.05;;;;;;;26.20;59.20;97974.88;1757964;81;21031;-74
2021/07/09 08:22:01;;;;;;;24.90;22.27;;;;;;;26.26;58.90;97965.81;1748440;82;21020;-74
2021/07/09 08:24:28;;;;;;;11.60;10.43;;;;;;;26.26;58.90;97965.81;1756833;81;21005;-74
2021/07/09 08:26:55;;;;;;;9.05;8.13;;;;;;;26.31;58.96;97963.52;1752734;81;21012;-75
2021/07/09 08:29:21;;;;;;;9.65;7.50;;;;;;;26.35;58.90;97956.30;1748522;82;20981;-75
2021/07/09 08:31:48;;;;;;;9.85;7.80;;;;;;;26.42;58.79;97963.86;1758650;81;20989;-74
2021/07/09 08:34:14;;;;;;;9.55;7.35;;;;;;;26.44;58.73;97965.94;1752539;81;21044;-74
2021/07/09 08:36:41;;;;;;;16.60;7.72;;;;;;;26.49;58.63;97971.27;1748469;82;21332;-74
2021/07/09 08:39:07;;;;;;;7.35;6.65;;;;;;;26.56;58.52;97972.02;1754249;81;21001;-73
2021/07/09 08:41:34;;;;;;;13.80;7.15;;;;;;;26.61;56.64;97962.43;1749010;81;20982;-73
2021/07/09 08:44:00;;;;;;;8.80;7.25;;;;;;;26.70;57.71;97964.75;1752354;81;21040;-73
2021/07/09 08:46:28;;;;;;;10.03;6.97;;;;;;;26.75;57.52;97962.95;1752496;81;21095;-74
2021/07/09 08:48:55;;;;;;;9.03;6.72;;;;;;;26.81;57.27;97961.52;1756879;81;21015;-74
2021/07/09 08:51:21;;;;;;;10.95;7.30;;;;;;;26.85;57.07;97961.05;1752869;81;20989;-75
2021/07/09 08:53:48;;;;;;;11.40;7.95;;;;;;;26.94;56.50;97951.16;1752929;81;20974;-74
2021/07/09 08:56:15;;;;;;;8.63;6.95;;;;;;;26.98;56.37;97956.64;1751330;81;21024;-75
2021/07/09 08:58:45;;;;;;;8.25;7.25;;;;;;;27.01;55.79;97948.20;1769304;81;20997;-74
2021/07/09 09:01:13;;;;;;;8.35;6.67;;;;;;;27.08;55.72;97955.73;1769357;81;21002;-74
2021/07/09 09:03:40;;;;;;;13.38;6.90;;;;;;;27.14;55.46;97957.84;1763268;81;21036;-74
2021/07/09 09:06:16;;;;;;;8.55;6.78;;;;;;;27.15;54.92;97945.94;1748544;82;21017;-74
2021/07/09 09:08:43;;;;;;;7.67;6.97;;;;;;;27.22;55.11;97952.99;1748690;82;21029;-73
2021/07/09 09:11:10;;;;;;;7.05;6.28;;;;;;;27.25;54.95;97946.77;1746803;82;21064;-73
2021/07/09 09:13:38;;;;;;;7.03;6.30;;;;;;;27.33;54.15;97947.84;1747693;81;21476;-74
2021/07/09 09:16:14;;;;;;;7.42;6.40;;;;;;;27.38;52.21;97945.52;1762058;81;21047;-73
2021/07/09 09:18:45;;;;;;;6.90;6.20;;;;;;;27.46;53.32;97942.02;1761681;81;21457;-74
2021/07/09 09:21:19;;;;;;;11.28;7.20;;;;;;;27.54;53.33;97948.39;1762098;81;20981;-73
2021/07/09 09:23:53;;;;;;;8.28;5.97;;;;;;;27.61;53.61;97947.83;1758531;81;21013;-74
2021/07/09 09:26:44;;;;;;;9.80;6.78;;;;;;;27.67;53.46;97948.06;1751047;81;21000;-74
2021/07/09 09:29:16;;;;;;;8.43;6.40;;;;;;;27.72;52.80;97936.69;1757120;81;20976;-73
2021/07/09 09:31:42;;;;;;;11.30;7.12;;;;;;;27.79;52.92;97939.15;1716126;81;22178;-71
2021/07/09 09:34:09;;;;;;;13.03;7.00;;;;;;;27.88;52.97;97932.39;1750427;81;21056;-72
2021/07/09 09:36:36;;;;;;;15.00;9.43;;;;;;;27.94;52.44;97933.98;1766156;81;20969;-73
2021/07/09 09:39:03;;;;;;;25.65;21.30;;;;;;;28.03;52.67;97941.69;1706451;83;21032;-73
2021/07/09 09:41:31;;;;;;;8.40;7.35;;;;;;;28.13;52.39;97925.76;1678923;85;21022;-73
2021/07/09 09:44:14;;;;;;;9.28;7.33;;;;;;;28.20;51.85;97931.77;1694070;85;21687;-73
2021/07/09 09:46:41;;;;;;;7.87;6.30;;;;;;;28.31;51.32;97931.19;1690556;83;21002;-71
2021/07/09 09:49:16;;;;;;;8.63;6.65;;;;;;;28.36;50.72;97919.81;1734680;81;20953;-73
2021/07/09 09:51:49;;;;;;;9.80;6.60;;;;;;;28.41;50.15;97929.72;1761730;81;21032;-72
2021/07/09 09:54:18;;;;;;;9.03;6.90;;;;;;;28.50;49.88;97926.03;1762123;81;21008;-72
2021/07/09 09:56:47;;;;;;;9.75;6.42;;;;;;;28.56;50.03;97924.54;1743526;81;21493;-71
2021/07/09 09:59:25;;;;;;;7.05;6.22;;;;;;;28.60;50.16;97917.72;1743592;81;21015;-72
2021/07/09 10:02:03;;;;;;;7.67;6.33;;;;;;;28.71;49.25;97923.40;1741603;82;21099;-72
2021/07/09 10:04:32;;;;;;;10.70;6.62;;;;;;;28.83;49.82;97919.87;1742000;81;20992;-72
2021/07/09 10:07:00;;;;;;;8.78;6.30;;;;;;;28.91;48.95;97918.58;1770459;81;20981;-73
2021/07/09 10:09:28;;;;;;;25.60;17.55;;;;;;;28.99;49.07;97917.75;1772108;81;21417;-74
2021/07/09 10:11:56;;;;;;;12.25;7.83;;;;;;;29.08;48.75;97914.53;1761255;80;21012;-74
2021/07/09 10:14:28;;;;;;;11.38;8.80;;;;;;;29.20;48.61;97905.52;1760839;80;21048;-76
2021/07/09 10:17:01;;;;;;;10.65;9.20;;;;;;;29.28;46.96;97908.27;1704552;83;21347;-74
2021/07/09 10:19:32;;;;;;;13.85;10.95;;;;;;;29.33;45.76;97911.85;1758694;80;21072;-74
2021/07/09 10:21:59;;;;;;;16.48;8.18;;;;;;;29.47;47.07;97909.83;1762885;80;21008;-73
2021/07/09 10:24:26;;;;;;;10.63;6.80;;;;;;;29.62;47.44;97903.73;1758756;80;21023;-72
2021/07/09 10:26:55;;;;;;;9.18;7.70;;;;;;;29.80;47.33;97903.55;1762191;80;21008;-72
2021/07/09 10:29:28;;;;;;;7.10;6.50;;;;;;;29.98;47.12;97897.06;1757488;80;20950;-72
2021/07/09 10:31:55;;;;;;;9.18;6.37;;;;;;;30.10;46.35;97904.39;1760511;80;20968;-72
2021/07/09 10:34:34;;;;;;;7.33;6.40;;;;;;;30.14;44.46;97898.42;1758021;80;20980;-72
2021/07/09 10:37:06;;;;;;;8.75;6.37;;;;;;;30.24;45.33;97895.52;1756895;80;21409;-73
2021/07/09 10:39:49;;;;;;;8.78;5.95;;;;;;;30.38;45.50;97891.20;1765281;80;21415;-74
2021/07/09 10:42:30;;;;;;;8.28;6.85;;;;;;;30.49;44.33;97889.98;1765167;80;21007;-74
2021/07/09 10:45:14;;;;;;;6.80;6.10;;;;;;;30.63;44.71;97878.80;1763782;80;20978;-74
2021/07/09 10:47:53;;;;;;;6.17;5.35;;;;;;;30.88;44.78;97880.63;1768764;80;21056;-74
2021/07/09 10:50:37;;;;;;;6.95;5.60;;;;;;;31.49;43.73;97881.28;1761299;80;21336;-74
2021/07/09 10:53:18;;;;;;;5.72;5.08;;;;;;;32.58;42.02;97878.41;1760678;80;21504;-75
2021/07/09 10:55:55;;;;;;;5.22;4.50;;;;;;;33.70;38.26;97876.83;1757022;80;21013;-75
2021/07/09 10:58:29;;;;;;;22.05;5.03;;;;;;;34.49;33.98;97880.39;1697709;83;21073;-74
2021/07/09 11:01:23;;;;;;;6.00;4.47;;;;;;;35.30;35.13;97867.53;1756567;82;21009;-75
2021/07/09 11:04:02;;;;;;;5.03;4.00;;;;;;;36.20;33.38;97877.91;1764829;80;21020;-74
2021/07/09 11:06:42;;;;;;;6.90;4.10;;;;;;;36.89;29.38;97871.15;1760062;80;20985;-75
2021/07/09 11:09:13;;;;;;;4.97;4.58;;;;;;;37.28;27.55;97863.74;1762656;80;21000;-76
2021/07/09 11:11:49;;;;;;;5.90;4.30;;;;;;;37.89;29.91;97853.09;1760041;80;21056;-76
2021/07/09 11:14:35;;;;;;;7.78;4.90;;;;;;;38.52;29.41;97846.19;1764769;80;21021;-76
2021/07/09 11:17:18;;;;;;;4.65;4.25;;;;;;;39.11;27.95;97839.33;1758897;80;21004;-76
2021/07/09 11:19:47;;;;;;;5.00;4.60;;;;;;;39.54;28.08;97847.66;1771404;80;21016;-76
2021/07/09 11:22:14;;;;;;;5.15;4.55;;;;;;;39.75;26.82;97844.86;1763967;80;21473;-76
2021/07/09 11:24:56;;;;;;;4.92;4.40;;;;;;;39.38;26.22;97840.30;1765166;80;21346;-75
2021/07/09 11:27:19;;;;;;;5.58;5.05;;;;;;;39.64;27.33;97834.61;1763083;80;20988;-76
2021/07/09 11:29:47;;;;;;;6.05;4.00;;;;;;;39.96;26.42;97832.90;1757953;81;20988;-75
2021/07/09 11:32:23;;;;;;;6.95;5.00;;;;;;;40.46;25.94;97827.40;1765771;80;21481;-76
2021/07/09 11:34:53;;;;;;;29.20;26.20;;;;;;;40.79;25.78;97830.56;1723804;82;20994;-76
2021/07/09 11:37:35;;;;;;;9.95;8.35;;;;;;;41.13;25.08;97834.86;1713653;83;22092;-76
2021/07/09 11:40:11;;;;;;;11.70;6.37;;;;;;;41.38;25.00;97837.02;1701341;83;20989;-76
2021/07/09 11:42:39;;;;;;;5.17;4.70;;;;;;;41.64;23.78;97828.58;1761304;80;21374;-77
2021/07/09 11:45:12;;;;;;;11.78;5.72;;;;;;;41.46;24.14;97823.25;1756708;82;21039;-76
2021/07/09 11:47:43;;;;;;;5.35;4.40;;;;;;;41.86;24.38;97824.19;1756540;82;21036;-75
2021/07/09 11:50:19;;;;;;;4.35;3.92;;;;;;;42.19;22.51;97827.52;1756677;80;21043;-76
2021/07/09 11:52:53;;;;;;;4.60;3.90;;;;;;;42.18;22.15;97822.20;1766239;80;21052;-76
2021/07/09 11:55:28;;;;;;;5.50;4.45;;;;;;;42.44;22.36;97819.22;1774726;80;20996;-76
2021/07/09 11:57:52;;;;;;;6.12;3.83;;;;;;;42.52;21.84;97824.88;1772695;80;21254;-76
2021/07/09 12:00:22;;;;;;;5.72;5.03;;;;;;;42.59;20.62;97813.58;1761551;80;21051;-76
2021/07/09 12:02:50;;;;;;;4.95;4.42;;;;;;;42.33;19.93;97815.45;1764136;80;20981;-79
2021/07/09 12:05:20;;;;;;;8.28;4.40;;;;;;;42.40;20.38;97812.48;1704762;83;21041;-78
2021/07/09 12:07:49;;;;;;;6.08;4.53;;;;;;;42.28;21.09;97815.91;1703952;83;21098;-75
2021/07/09 12:10:32;;;;;;;4.47;4.08;;;;;;;42.20;21.54;97813.88;1762406;80;21051;-75
2021/07/09 12:13:02;;;;;;;5.65;4.20;;;;;;;42.57;21.39;97812.95;1752917;80;21049;-75
2021/07/09 12:15:37;;;;;;;7.28;4.37;;;;;;;43.00;21.14;97814.61;1747376;81;21441;-75
2021/07/09 12:18:14;;;;;;;9.58;4.85;;;;;;;43.25;21.37;97807.64;1733380;81;21004;-74
2021/07/09 12:20:43;;;;;;;5.97;4.47;;;;;;;43.52;21.38;97821.58;1758466;81;21017;-76
2021/07/09 12:23:18;;;;;;;6.60;4.03;;;;;;;43.64;20.30;97814.42;1742229;81;20976;-73
2021/07/09 12:25:52;;;;;;;4.90;4.47;;;;;;;43.74;20.58;97805.84;1742317;81;21446;-73
2021/07/09 12:28:26;;;;;;;4.58;4.17;;;;;;;43.97;20.15;97806.57;1741441;82;21387;-74
2021/07/09 12:30:56;;;;;;;4.97;4.50;;;;;;;44.01;20.04;97809.11;1741477;82;21009;-76
2021/07/09 12:33:27;;;;;;;5.50;4.22;;;;;;;43.82;20.01;97799.74;1752016;81;20989;-74
2021/07/09 12:36:04;;;;;;;4.50;4.08;;;;;;;43.98;19.95;97799.87;1751101;81;21032;-75
2021/07/09 12:38:40;;;;;;;4.55;4.20;;;;;;;43.94;20.08;97796.78;1772393;81;21021;-75
2021/07/09 12:41:13;;;;;;;4.92;4.45;;;;;;;44.18;20.22;97797.22;1754669;81;21055;-76
2021/07/09 12:43:47;;;;;;;5.37;4.10;;;;;;;44.51;19.87;97796.27;1749603;81;21017;-76
2021/07/09 12:46:29;;;;;;;11.43;5.58;;;;;;;44.67;19.78;97804.19;1744415;81;20984;-75
2021/07/09 12:49:05;;;;;;;6.87;4.00;;;;;;;44.87;19.19;97806.22;1755276;81;21016;-75
2021/07/09 12:51:37;;;;;;;7.15;4.03;;;;;;;44.33;18.59;97801.23;1754245;81;21000;-75
2021/07/09 12:54:13;;;;;;;4.75;3.90;;;;;;;44.35;19.00;97793.41;1755520;81;21561;-74
2021/07/09 12:56:54;;;;;;;4.30;3.90;;;;;;;44.44;19.07;97801.56;1752298;81;20968;-75
2021/07/09 12:59:25;;;;;;;7.67;7.08;;;;;;;44.51;19.14;97794.33;1750350;81;21056;-74
2021/07/09 13:02:06;;;;;;;4.20;3.90;;;;;;;44.60;18.79;97797.42;1740990;81;21001;-75
2021/07/09 13:04:45;;;;;;;4.90;4.47;;;;;;;44.46;18.30;97790.12;1742323;81;21005;-75
2021/07/09 13:07:21;;;;;;;4.95;3.45;;;;;;;44.36;18.44;97785.89;1759080;81;21815;-75
2021/07/09 13:09:50;;;;;;;4.12;3.83;;;;;;;44.54;18.54;97785.38;1755502;81;22093;-76
2021/07/09 13:12:32;;;;;;;5.70;3.60;;;;;;;44.56;17.98;97779.52;1758433;81;21013;-76
2021/07/09 13:15:08;;;;;;;6.00;3.87;;;;;;;44.35;17.93;97778.59;1768548;80;21059;-75
2021/07/09 13:17:38;;;;;;;3.72;3.40;;;;;;;44.39;18.03;97775.00;1766758;80;21492;-75
2021/07/09 13:20:11;;;;;;;4.40;4.00;;;;;;;44.26;18.39;97769.36;1764337;80;21044;-75
2021/07/09 13:22:48;;;;;;;8.10;3.83;;;;;;;44.35;18.08;97766.88;1774760;80;20940;-75
2021/07/09 13:25:23;;;;;;;4.40;4.00;;;;;;;44.24;18.13;97768.75;1766005;80;20969;-75
2021/07/09 13:28:13;;;;;;;4.65;4.12;;;;;;;44.31;18.09;97763.80;1761751;80;21018;-75
2021/07/09 13:30:39;;;;;;;4.35;3.95;;;;;;;44.33;18.65;97759.34;1768535;80;20981;-74
2021/07/09 13:33:14;;;;;;;4.50;3.85;;;;;;;44.12;17.78;97758.38;1762084;80;20988;-75
2021/07/09 13:35:47;;;;;;;4.35;4.00;;;;;;;44.16;18.80;97763.13;1766550;80;20968;-75
2021/07/09 13:38:14;;;;;;;4.75;3.87;;;;;;;44.19;18.86;97767.33;1764966;80;21080;-75
2021/07/09 13:40:41;;;;;;;5.12;3.90;;;;;;;44.36;18.48;97765.77;1767066;80;21016;-75
2021/07/09 13:43:08;;;;;;;6.10;3.90;;;;;;;44.24;18.20;97765.95;1761854;81;20996;-75
2021/07/09 13:45:37;;;;;;;7.15;4.30;;;;;;;44.14;18.28;97768.16;1763184;80;21087;-75
2021/07/09 13:48:04;;;;;;;4.53;3.92;;;;;;;43.02;18.98;97778.11;1727599;82;20965;-75
2021/07/09 13:50:31;;;;;;;5.25;3.87;;;;;;;42.26;19.78;97781.39;1706501;83;21457;-75
2021/07/09 13:52:59;;;;;;;6.20;3.85;;;;;;;41.31;20.52;97777.41;1695150;85;21036;-75
2021/07/09 13:55:26;;;;;;;5.67;3.70;;;;;;;40.26;21.19;97771.70;1700846;83;21441;-75
2021/07/09 13:57:52;;;;;;;5.17;3.80;;;;;;;39.06;22.68;97769.93;1708999;83;21012;-76
2021/07/09 14:00:19;;;;;;;5.10;3.62;;;;;;;38.37;23.62;97776.54;1710256;83;21280;-75
2021/07/09 14:02:46;;;;;;;6.45;3.70;;;;;;;37.75;24.32;97773.56;1715456;83;20996;-75
2021/07/09 14:05:13;;;;;;;4.40;3.65;;;;;;;37.17;25.02;97771.36;1733003;82;20981;-76
2021/07/09 14:07:40;;;;;;;4.20;3.90;;;;;;;36.70;25.57;97778.52;1701087;83;21428;-76
2021/07/09 14:10:08;;;;;;;4.12;3.70;;;;;;;36.10;26.66;97777.63;1705853;83;21025;-75
2021/07/09 14:12:35;;;;;;;3.95;3.65;;;;;;;35.67;27.29;97773.47;1732750;82;21522;-76
2021/07/09 14:15:04;;;;;;;5.90;3.75;;;;;;;35.19;28.09;97762.11;1713574;84;21048;-75
2021/07/09 14:17:30;;;;;;;7.20;4.20;;;;;;;34.87;28.76;97755.23;1720694;82;21080;-75
2021/07/09 14:19:56;;;;;;;4.20;3.80;;;;;;;34.60;29.38;97748.82;1720749;82;21005;-75
2021/07/09 14:22:23;;;;;;;5.97;3.95;;;;;;;34.32;29.53;97748.36;1717245;82;20986;-75
2021/07/09 14:24:50;;;;;;;4.10;3.60;;;;;;;33.96;30.04;97746.17;1721396;82;21450;-75
2021/07/09 14:27:16;;;;;;;5.37;4.03;;;;;;;33.67;30.63;97743.44;1715789;82;21008;-75
2021/07/09 14:29:42;;;;;;;6.35;4.50;;;;;;;33.40;31.17;97738.23;1748531;82;21046;-75
2021/07/09 14:32:09;;;;;;;4.45;4.03;;;;;;;33.19;31.56;97739.98;1748717;82;21014;-73
2021/07/09 14:34:36;;;;;;;10.90;4.17;;;;;;;33.03;31.85;97733.72;1748882;81;21064;-73
2021/07/09 14:37:03;;;;;;;7.92;7.10;;;;;;;32.87;32.26;97743.02;1753586;80;20954;-73
2021/07/09 14:39:30;;;;;;;4.50;4.10;;;;;;;32.73;32.70;97736.56;1752593;81;21434;-73
2021/07/09 14:41:57;;;;;;;5.65;4.20;;;;;;;32.56;32.97;97744.69;1756712;81;21035;-73
2021/07/09 14:44:23;;;;;;;4.53;4.00;;;;;;;32.42;33.33;97739.01;1718677;82;20986;-74
2021/07/09 14:46:50;;;;;;;4.92;4.50;;;;;;;32.33;33.67;97743.77;1755880;80;21032;-74
2021/07/09 14:49:19;;;;;;;4.47;3.98;;;;;;;32.28;34.28;97748.97;1752986;81;21424;-78
2021/07/09 14:51:44;;;;;;;9.45;4.60;;;;;;;32.24;34.13;97747.14;1757147;81;21043;-75
2021/07/09 14:54:11;;;;;;;5.80;4.05;;;;;;;32.23;34.25;97741.34;1757195;81;20942;-74
2021/07/09 14:56:37;;;;;;;5.95;3.98;;;;;;;32.26;34.94;97740.94;1754180;81;21427;-73
2021/07/09 14:59:05;;;;;;;4.35;4.05;;;;;;;32.40;35.04;97743.84;1749570;81;21020;-73
2021/07/09 15:01:33;;;;;;;4.28;3.87;;;;;;;32.84;34.32;97739.28;1700685;82;21054;-73
2021/07/09 15:04:00;;;;;;;5.90;4.20;;;;;;;33.53;33.65;97732.89;1749154;80;21459;-74
2021/07/09 15:06:27;;;;;;;4.20;3.80;;;;;;;34.15;32.79;97721.22;1776675;81;21500;-74
2021/07/09 15:08:53;;;;;;;4.00;3.70;;;;;;;34.73;31.90;97712.23;1770933;81;21043;-75
2021/07/09 15:11:20;;;;;;;6.78;3.85;;;;;;;35.32;31.16;97716.64;1749627;81;20966;-74
2021/07/09 15:13:46;;;;;;;3.85;3.55;;;;;;;36.02;30.20;97715.80;1752911;82;21081;-74
2021/07/09 15:16:13;;;;;;;4.62;3.62;;;;;;;36.74;28.96;97703.86;1756281;80;21103;-74
2021/07/09 15:18:39;;;;;;;5.67;3.60;;;;;;;37.40;27.63;97698.59;1757099;82;21008;-74
2021/07/09 15:21:07;;;;;;;5.00;3.70;;;;;;;37.81;26.61;97697.69;1757118;82;21046;-74
2021/07/09 15:23:34;;;;;;;4.42;3.70;;;;;;;37.85;26.55;97690.06;1757226;82;20984;-74
2021/07/09 15:26:00;;;;;;;5.37;3.67;;;;;;;37.72;26.53;97683.30;1757305;82;21011;-74
2021/07/09 15:28:27;;;;;;;3.90;3.60;;;;;;;37.40;26.28;97681.45;1757427;82;21422;-74
2021/07/09 15:30:53;;;;;;;4.30;3.77;;;;;;;37.05;26.49;97681.44;1757344;82;21044;-74
2021/07/09 15:33:20;;;;;;;7.30;3.80;;;;;;;36.59;26.82;97688.94;1771104;80;20956;-73
2021/07/09 15:35:46;;;;;;;6.67;4.00;;;;;;;36.15;27.36;97697.86;1766685;80;21018;-73
2021/07/09 15:38:13;;;;;;;5.87;3.77;;;;;;;35.66;28.11;97691.30;1788280;80;20985;-73
2021/07/09 15:40:39;;;;;;;4.30;3.90;;;;;;;35.47;28.53;97692.16;1788230;80;21036;-74
2021/07/09 15:43:06;;;;;;;5.53;4.08;;;;;;;35.15;28.92;97684.55;1788482;80;21051;-74
2021/07/09 15:45:32;;;;;;;5.72;3.83;;;;;;;34.77;29.63;97684.61;1788168;80;21055;-74
2021/07/09 15:47:59;;;;;;;4.03;3.67;;;;;;;34.48;29.86;97683.88;1788292;80;21498;-74
2021/07/09 15:50:25;;;;;;;4.40;3.55;;;;;;;34.17;30.15;97685.28;1720730;83;21032;-75
2021/07/09 15:52:52;;;;;;;7.72;4.12;;;;;;;33.90;30.59;97683.22;1716726;83;20994;-75